sensor_id;sensor_type;location;lat;lon;timestamp;P1;durP1;ratioP1;P2;durP2;ratioP2
76733;SDS011;65660;53.288;14.666;2023-07-20T00:01:16;8.20;;;7.60;;
76733;SDS011;65660;53.288;14.666;2023-07-20T00:06:16;7.85;;;7.38;;
76733;SDS011;65660;53.288;14.666;2023-07-20T00:11:17;7.80;;;7.30;;
76733;SDS011;65660;53.288;14.666;2023-07-20T00:16:17;7.78;;;7.20;;
76733;SDS011;65660;53.288;14.666;2023-07-20T00:21:18;7.55;;;7.05;;
76733;SDS011;65660;53.288;14.666;2023-07-20T00:26:18;7.88;;;7.20;;
76733;SDS011;65660;53.288;14.666;2023-07-20T00:31:19;7.15;;;6.65;;
76733;SDS011;65660;53.288;14.666;2023-07-20T00:36:19;7.18;;;6.53;;
76733;SDS011;65660;53.288;14.666;2023-07-20T00:41:20;6.78;;;6.18;;
76733;SDS011;65660;53.288;14.666;2023-07-20T00:46:21;6.82;;;6.32;;
76733;SDS011;65660;53.288;14.666;2023-07-20T00:51:23;6.53;;;6.03;;
76733;SDS011;65660;53.288;14.666;2023-07-20T00:56:23;8.02;;;7.53;;
76733;SDS011;65660;53.288;14.666;2023-07-20T01:01:24;5.60;;;5.10;;
76733;SDS011;65660;53.288;14.666;2023-07-20T01:17:11;7.20;;;6.50;;
76733;SDS011;65660;53.288;14.666;2023-07-20T01:32:40;9.05;;;8.15;;
76733;SDS011;65660;53.288;14.666;2023-07-20T01:37:43;10.50;;;9.70;;
76733;SDS011;65660;53.288;14.666;2023-07-20T01:42:47;11.00;;;9.90;;
76733;SDS011;65660;53.288;14.666;2023-07-20T01:47:48;10.77;;;9.90;;
76733;SDS011;65660;53.288;14.666;2023-07-20T01:52:48;8.30;;;7.60;;
76733;SDS011;65660;53.288;14.666;2023-07-20T01:57:50;10.60;;;9.70;;
76733;SDS011;65660;53.288;14.666;2023-07-20T02:02:51;12.15;;;7.28;;
76733;SDS011;65660;53.288;14.666;2023-07-20T02:07:51;9.65;;;8.65;;
76733;SDS011;65660;53.288;14.666;2023-07-20T02:12:52;11.13;;;9.98;;
76733;SDS011;65660;53.288;14.666;2023-07-20T02:17:52;11.20;;;10.13;;
76733;SDS011;65660;53.288;14.666;2023-07-20T02:22:53;11.27;;;10.13;;
76733;SDS011;65660;53.288;14.666;2023-07-20T02:27:55;11.45;;;10.35;;
76733;SDS011;65660;53.288;14.666;2023-07-20T02:32:56;12.57;;;10.30;;
76733;SDS011;65660;53.288;14.666;2023-07-20T02:37:57;10.70;;;9.70;;
76733;SDS011;65660;53.288;14.666;2023-07-20T02:42:57;13.23;;;10.05;;
76733;SDS011;65660;53.288;14.666;2023-07-20T02:47:58;11.00;;;9.88;;
76733;SDS011;65660;53.288;14.666;2023-07-20T02:52:58;11.73;;;10.07;;
76733;SDS011;65660;53.288;14.666;2023-07-20T02:57:59;11.45;;;10.55;;
76733;SDS011;65660;53.288;14.666;2023-07-20T03:02:59;10.30;;;9.43;;
76733;SDS011;65660;53.288;14.666;2023-07-20T03:08:00;12.77;;;11.60;;
76733;SDS011;65660;53.288;14.666;2023-07-20T03:13:00;11.10;;;10.20;;
76733;SDS011;65660;53.288;14.666;2023-07-20T03:18:01;10.07;;;9.27;;
76733;SDS011;65660;53.288;14.666;2023-07-20T03:23:01;9.25;;;8.55;;
76733;SDS011;65660;53.288;14.666;2023-07-20T03:28:02;9.40;;;8.60;;
76733;SDS011;65660;53.288;14.666;2023-07-20T03:33:02;9.55;;;8.75;;
76733;SDS011;65660;53.288;14.666;2023-07-20T03:38:03;8.77;;;8.18;;
76733;SDS011;65660;53.288;14.666;2023-07-20T03:43:04;8.90;;;8.20;;
76733;SDS011;65660;53.288;14.666;2023-07-20T03:48:04;10.20;;;9.40;;
76733;SDS011;65660;53.288;14.666;2023-07-20T03:53:05;11.10;;;10.35;;
76733;SDS011;65660;53.288;14.666;2023-07-20T03:58:06;10.32;;;9.63;;
76733;SDS011;65660;53.288;14.666;2023-07-20T04:03:07;9.68;;;8.95;;
76733;SDS011;65660;53.288;14.666;2023-07-20T04:08:07;8.63;;;7.93;;
76733;SDS011;65660;53.288;14.666;2023-07-20T04:13:07;10.50;;;9.70;;
76733;SDS011;65660;53.288;14.666;2023-07-20T04:18:08;10.23;;;9.32;;
76733;SDS011;65660;53.288;14.666;2023-07-20T04:23:09;9.60;;;8.80;;
76733;SDS011;65660;53.288;14.666;2023-07-20T04:28:09;10.00;;;9.10;;
76733;SDS011;65660;53.288;14.666;2023-07-20T04:33:09;9.70;;;8.90;;
76733;SDS011;65660;53.288;14.666;2023-07-20T04:38:10;9.68;;;8.88;;
76733;SDS011;65660;53.288;14.666;2023-07-20T04:43:11;8.70;;;8.00;;
76733;SDS011;65660;53.288;14.666;2023-07-20T04:48:12;8.50;;;7.88;;
76733;SDS011;65660;53.288;14.666;2023-07-20T04:53:14;6.60;;;6.10;;
76733;SDS011;65660;53.288;14.666;2023-07-20T04:58:14;7.88;;;7.38;;
76733;SDS011;65660;53.288;14.666;2023-07-20T05:03:15;9.60;;;9.00;;
76733;SDS011;65660;53.288;14.666;2023-07-20T05:08:16;8.07;;;7.57;;
76733;SDS011;65660;53.288;14.666;2023-07-20T05:13:17;8.65;;;7.97;;
76733;SDS011;65660;53.288;14.666;2023-07-20T05:18:17;8.38;;;7.55;;
76733;SDS011;65660;53.288;14.666;2023-07-20T05:23:18;7.25;;;6.75;;
76733;SDS011;65660;53.288;14.666;2023-07-20T05:28:19;8.35;;;7.85;;
76733;SDS011;65660;53.288;14.666;2023-07-20T05:33:20;7.80;;;7.30;;
76733;SDS011;65660;53.288;14.666;2023-07-20T05:38:20;8.63;;;8.02;;
76733;SDS011;65660;53.288;14.666;2023-07-20T05:43:21;8.63;;;7.93;;
76733;SDS011;65660;53.288;14.666;2023-07-20T05:48:21;8.13;;;7.43;;
76733;SDS011;65660;53.288;14.666;2023-07-20T05:53:22;9.23;;;8.55;;
76733;SDS011;65660;53.288;14.666;2023-07-20T05:58:22;8.27;;;7.57;;
76733;SDS011;65660;53.288;14.666;2023-07-20T06:03:23;8.27;;;7.68;;
76733;SDS011;65660;53.288;14.666;2023-07-20T06:08:23;7.60;;;7.10;;
76733;SDS011;65660;53.288;14.666;2023-07-20T06:13:24;8.32;;;7.80;;
76733;SDS011;65660;53.288;14.666;2023-07-20T06:18:24;6.43;;;6.00;;
76733;SDS011;65660;53.288;14.666;2023-07-20T06:23:25;6.00;;;5.50;;
76733;SDS011;65660;53.288;14.666;2023-07-20T06:28:25;8.07;;;7.40;;
76733;SDS011;65660;53.288;14.666;2023-07-20T06:33:26;7.25;;;6.65;;
76733;SDS011;65660;53.288;14.666;2023-07-20T06:38:27;6.88;;;6.38;;
76733;SDS011;65660;53.288;14.666;2023-07-20T06:43:27;6.40;;;5.95;;
76733;SDS011;65660;53.288;14.666;2023-07-20T06:48:27;7.93;;;7.40;;
76733;SDS011;65660;53.288;14.666;2023-07-20T06:53:28;8.13;;;7.53;;
76733;SDS011;65660;53.288;14.666;2023-07-20T06:58:30;9.27;;;8.68;;
76733;SDS011;65660;53.288;14.666;2023-07-20T07:03:30;8.10;;;7.60;;
76733;SDS011;65660;53.288;14.666;2023-07-20T07:08:31;6.55;;;6.10;;
76733;SDS011;65660;53.288;14.666;2023-07-20T07:13:31;6.85;;;6.43;;
76733;SDS011;65660;53.288;14.666;2023-07-20T07:18:31;6.60;;;6.30;;
76733;SDS011;65660;53.288;14.666;2023-07-20T07:23:32;6.88;;;6.32;;
76733;SDS011;65660;53.288;14.666;2023-07-20T07:28:32;6.95;;;6.55;;
76733;SDS011;65660;53.288;14.666;2023-07-20T07:33:33;5.97;;;5.63;;
76733;SDS011;65660;53.288;14.666;2023-07-20T07:38:33;4.35;;;4.03;;
76733;SDS011;65660;53.288;14.666;2023-07-20T07:43:34;4.65;;;4.35;;
76733;SDS011;65660;53.288;14.666;2023-07-20T07:48:34;5.43;;;5.13;;
76733;SDS011;65660;53.288;14.666;2023-07-20T07:53:35;6.38;;;6.00;;
76733;SDS011;65660;53.288;14.666;2023-07-20T07:58:35;5.82;;;5.53;;
76733;SDS011;65660;53.288;14.666;2023-07-20T08:03:37;4.85;;;4.55;;
76733;SDS011;65660;53.288;14.666;2023-07-20T08:08:37;3.92;;;3.70;;
76733;SDS011;65660;53.288;14.666;2023-07-20T08:13:38;5.80;;;5.43;;
76733;SDS011;65660;53.288;14.666;2023-07-20T08:18:38;4.20;;;3.80;;
76733;SDS011;65660;53.288;14.666;2023-07-20T08:23:40;5.68;;;4.70;;
76733;SDS011;65660;53.288;14.666;2023-07-20T08:28:40;5.82;;;5.43;;
76733;SDS011;65660;53.288;14.666;2023-07-20T08:33:42;5.90;;;5.40;;
76733;SDS011;65660;53.288;14.666;2023-07-20T08:38:43;5.50;;;5.10;;
76733;SDS011;65660;53.288;14.666;2023-07-20T08:43:44;5.40;;;5.00;;
76733;SDS011;65660;53.288;14.666;2023-07-20T08:48:46;7.30;;;6.90;;
76733;SDS011;65660;53.288;14.666;2023-07-20T08:53:47;6.90;;;6.60;;
76733;SDS011;65660;53.288;14.666;2023-07-20T08:58:48;7.20;;;6.80;;
76733;SDS011;65660;53.288;14.666;2023-07-20T09:03:48;7.45;;;6.95;;
76733;SDS011;65660;53.288;14.666;2023-07-20T09:08:49;7.63;;;7.13;;
76733;SDS011;65660;53.288;14.666;2023-07-20T09:14:01;8.45;;;7.78;;
76733;SDS011;65660;53.288;14.666;2023-07-20T09:19:03;10.00;;;8.38;;
76733;SDS011;65660;53.288;14.666;2023-07-20T09:24:04;5.75;;;5.18;;
76733;SDS011;65660;53.288;14.666;2023-07-20T09:29:07;5.75;;;4.95;;
76733;SDS011;65660;53.288;14.666;2023-07-20T09:34:07;6.13;;;5.63;;
76733;SDS011;65660;53.288;14.666;2023-07-20T09:39:08;5.80;;;5.50;;
76733;SDS011;65660;53.288;14.666;2023-07-20T09:44:08;6.45;;;6.05;;
76733;SDS011;65660;53.288;14.666;2023-07-20T09:49:10;8.35;;;7.85;;
76733;SDS011;65660;53.288;14.666;2023-07-20T09:54:11;6.78;;;6.47;;
76733;SDS011;65660;53.288;14.666;2023-07-20T09:59:11;7.40;;;7.00;;
76733;SDS011;65660;53.288;14.666;2023-07-20T10:04:13;7.38;;;6.85;;
76733;SDS011;65660;53.288;14.666;2023-07-20T10:09:14;6.60;;;6.20;;
76733;SDS011;65660;53.288;14.666;2023-07-20T10:14:16;10.45;;;8.02;;
76733;SDS011;65660;53.288;14.666;2023-07-20T10:24:32;14.20;;;8.93;;
76733;SDS011;65660;53.288;14.666;2023-07-20T10:29:33;13.77;;;9.32;;
76733;SDS011;65660;53.288;14.666;2023-07-20T10:34:34;16.55;;;9.70;;
76733;SDS011;65660;53.288;14.666;2023-07-20T10:39:35;4.22;;;3.92;;
76733;SDS011;65660;53.288;14.666;2023-07-20T10:50:32;7.97;;;7.47;;
76733;SDS011;65660;53.288;14.666;2023-07-20T10:55:33;7.07;;;6.57;;
76733;SDS011;65660;53.288;14.666;2023-07-20T11:00:34;7.70;;;7.10;;
76733;SDS011;65660;53.288;14.666;2023-07-20T11:05:35;6.70;;;6.00;;
76733;SDS011;65660;53.288;14.666;2023-07-20T11:10:37;6.80;;;6.38;;
76733;SDS011;65660;53.288;14.666;2023-07-20T11:16:11;4.28;;;3.97;;
76733;SDS011;65660;53.288;14.666;2023-07-20T11:21:06;5.93;;;5.60;;
76733;SDS011;65660;53.288;14.666;2023-07-20T11:26:08;7.18;;;6.78;;
76733;SDS011;65660;53.288;14.666;2023-07-20T11:31:08;6.18;;;5.88;;
76733;SDS011;65660;53.288;14.666;2023-07-20T11:36:09;7.30;;;6.90;;
76733;SDS011;65660;53.288;14.666;2023-07-20T11:41:09;6.38;;;5.97;;
76733;SDS011;65660;53.288;14.666;2023-07-20T11:46:10;10.40;;;9.50;;
76733;SDS011;65660;53.288;14.666;2023-07-20T11:51:14;6.20;;;5.70;;
76733;SDS011;65660;53.288;14.666;2023-07-20T11:56:15;5.80;;;5.50;;
76733;SDS011;65660;53.288;14.666;2023-07-20T12:01:17;6.85;;;6.30;;
76733;SDS011;65660;53.288;14.666;2023-07-20T12:06:18;7.45;;;6.82;;
76733;SDS011;65660;53.288;14.666;2023-07-20T12:11:34;7.57;;;7.07;;
76733;SDS011;65660;53.288;14.666;2023-07-20T12:16:36;8.05;;;7.65;;
76733;SDS011;65660;53.288;14.666;2023-07-20T12:21:37;11.82;;;11.27;;
76733;SDS011;65660;53.288;14.666;2023-07-20T12:26:39;7.05;;;6.45;;
76733;SDS011;65660;53.288;14.666;2023-07-20T12:31:40;5.97;;;5.57;;
76733;SDS011;65660;53.288;14.666;2023-07-20T12:36:41;9.95;;;9.55;;
76733;SDS011;65660;53.288;14.666;2023-07-20T12:41:42;6.70;;;6.40;;
76733;SDS011;65660;53.288;14.666;2023-07-20T12:46:44;6.82;;;6.53;;
76733;SDS011;65660;53.288;14.666;2023-07-20T12:51:44;8.18;;;7.47;;
76733;SDS011;65660;53.288;14.666;2023-07-20T12:56:45;3.53;;;3.42;;
76733;SDS011;65660;53.288;14.666;2023-07-20T13:01:45;2.40;;;2.30;;
76733;SDS011;65660;53.288;14.666;2023-07-20T13:06:46;3.08;;;2.97;;
76733;SDS011;65660;53.288;14.666;2023-07-20T13:11:46;2.83;;;2.72;;
76733;SDS011;65660;53.288;14.666;2023-07-20T13:16:46;3.00;;;2.70;;
76733;SDS011;65660;53.288;14.666;2023-07-20T13:21:47;3.92;;;3.63;;
76733;SDS011;65660;53.288;14.666;2023-07-20T13:26:48;4.95;;;4.10;;
76733;SDS011;65660;53.288;14.666;2023-07-20T13:31:48;3.33;;;3.22;;
76733;SDS011;65660;53.288;14.666;2023-07-20T13:36:49;3.70;;;3.50;;
76733;SDS011;65660;53.288;14.666;2023-07-20T13:41:49;6.25;;;5.95;;
76733;SDS011;65660;53.288;14.666;2023-07-20T13:46:50;3.33;;;3.13;;
76733;SDS011;65660;53.288;14.666;2023-07-20T13:51:50;3.65;;;3.35;;
76733;SDS011;65660;53.288;14.666;2023-07-20T13:56:51;3.45;;;3.15;;
76733;SDS011;65660;53.288;14.666;2023-07-20T14:01:51;3.83;;;3.40;;
76733;SDS011;65660;53.288;14.666;2023-07-20T14:06:52;4.50;;;4.30;;
76733;SDS011;65660;53.288;14.666;2023-07-20T14:11:52;4.20;;;3.90;;
76733;SDS011;65660;53.288;14.666;2023-07-20T14:16:53;4.40;;;4.20;;
76733;SDS011;65660;53.288;14.666;2023-07-20T14:21:54;8.23;;;7.60;;
76733;SDS011;65660;53.288;14.666;2023-07-20T14:26:54;8.60;;;8.10;;
76733;SDS011;65660;53.288;14.666;2023-07-20T14:31:55;8.30;;;7.75;;
76733;SDS011;65660;53.288;14.666;2023-07-20T14:36:55;11.98;;;11.32;;
76733;SDS011;65660;53.288;14.666;2023-07-20T14:41:58;13.18;;;12.55;;
76733;SDS011;65660;53.288;14.666;2023-07-20T14:46:58;8.52;;;8.02;;
76733;SDS011;65660;53.288;14.666;2023-07-20T14:51:59;9.25;;;8.65;;
76733;SDS011;65660;53.288;14.666;2023-07-20T14:56:59;7.38;;;7.07;;
76733;SDS011;65660;53.288;14.666;2023-07-20T15:02:00;9.02;;;8.52;;
76733;SDS011;65660;53.288;14.666;2023-07-20T15:07:00;8.00;;;7.60;;
76733;SDS011;65660;53.288;14.666;2023-07-20T15:12:01;7.28;;;6.93;;
76733;SDS011;65660;53.288;14.666;2023-07-20T15:17:02;7.00;;;6.57;;
76733;SDS011;65660;53.288;14.666;2023-07-20T15:22:02;7.43;;;7.03;;
76733;SDS011;65660;53.288;14.666;2023-07-20T15:27:03;7.47;;;7.07;;
76733;SDS011;65660;53.288;14.666;2023-07-20T15:32:04;9.70;;;9.30;;
76733;SDS011;65660;53.288;14.666;2023-07-20T15:37:05;7.63;;;7.10;;
76733;SDS011;65660;53.288;14.666;2023-07-20T15:42:05;7.22;;;6.82;;
76733;SDS011;65660;53.288;14.666;2023-07-20T15:47:06;7.60;;;7.10;;
76733;SDS011;65660;53.288;14.666;2023-07-20T15:52:07;7.50;;;7.10;;
76733;SDS011;65660;53.288;14.666;2023-07-20T15:57:07;7.50;;;7.10;;
76733;SDS011;65660;53.288;14.666;2023-07-20T16:02:08;7.90;;;7.50;;
76733;SDS011;65660;53.288;14.666;2023-07-20T16:07:09;7.60;;;7.20;;
76733;SDS011;65660;53.288;14.666;2023-07-20T16:12:10;8.80;;;8.30;;
76733;SDS011;65660;53.288;14.666;2023-07-20T16:17:11;8.20;;;7.70;;
76733;SDS011;65660;53.288;14.666;2023-07-20T16:22:12;8.50;;;8.00;;
76733;SDS011;65660;53.288;14.666;2023-07-20T16:27:13;7.60;;;7.07;;
76733;SDS011;65660;53.288;14.666;2023-07-20T16:32:13;10.07;;;9.48;;
76733;SDS011;65660;53.288;14.666;2023-07-20T16:37:14;9.65;;;9.13;;
76733;SDS011;65660;53.288;14.666;2023-07-20T16:42:14;5.70;;;5.40;;
76733;SDS011;65660;53.288;14.666;2023-07-20T16:47:15;4.85;;;4.50;;
76733;SDS011;65660;53.288;14.666;2023-07-20T16:52:16;9.30;;;8.77;;
76733;SDS011;65660;53.288;14.666;2023-07-20T16:57:16;4.78;;;4.40;;
76733;SDS011;65660;53.288;14.666;2023-07-20T17:02:18;4.28;;;3.88;;
76733;SDS011;65660;53.288;14.666;2023-07-20T17:07:18;4.07;;;3.83;;
76733;SDS011;65660;53.288;14.666;2023-07-20T17:12:19;4.13;;;3.90;;
76733;SDS011;65660;53.288;14.666;2023-07-20T17:17:19;4.38;;;4.18;;
76733;SDS011;65660;53.288;14.666;2023-07-20T17:22:20;4.43;;;3.65;;
76733;SDS011;65660;53.288;14.666;2023-07-20T17:27:20;4.13;;;3.72;;
76733;SDS011;65660;53.288;14.666;2023-07-20T17:32:21;8.50;;;8.10;;
76733;SDS011;65660;53.288;14.666;2023-07-20T17:37:21;9.45;;;8.88;;
76733;SDS011;65660;53.288;14.666;2023-07-20T17:42:22;8.25;;;7.55;;
76733;SDS011;65660;53.288;14.666;2023-07-20T17:47:22;4.00;;;3.70;;
76733;SDS011;65660;53.288;14.666;2023-07-20T17:52:23;4.18;;;3.85;;
76733;SDS011;65660;53.288;14.666;2023-07-20T17:57:24;4.07;;;3.70;;
76733;SDS011;65660;53.288;14.666;2023-07-20T18:02:25;4.85;;;4.15;;
76733;SDS011;65660;53.288;14.666;2023-07-20T18:07:26;8.77;;;8.15;;
76733;SDS011;65660;53.288;14.666;2023-07-20T18:12:26;9.82;;;9.25;;
76733;SDS011;65660;53.288;14.666;2023-07-20T18:17:27;7.22;;;6.75;;
76733;SDS011;65660;53.288;14.666;2023-07-20T18:22:27;6.90;;;6.50;;
76733;SDS011;65660;53.288;14.666;2023-07-20T18:27:28;7.60;;;7.10;;
76733;SDS011;65660;53.288;14.666;2023-07-20T18:32:28;8.40;;;7.90;;
76733;SDS011;65660;53.288;14.666;2023-07-20T18:37:29;11.18;;;10.57;;
76733;SDS011;65660;53.288;14.666;2023-07-20T18:42:29;7.60;;;6.97;;
76733;SDS011;65660;53.288;14.666;2023-07-20T18:47:30;7.63;;;7.13;;
76733;SDS011;65660;53.288;14.666;2023-07-20T18:52:30;7.45;;;6.43;;
76733;SDS011;65660;53.288;14.666;2023-07-20T18:57:31;6.50;;;6.00;;
76733;SDS011;65660;53.288;14.666;2023-07-20T19:02:32;6.20;;;5.90;;
76733;SDS011;65660;53.288;14.666;2023-07-20T19:07:32;6.47;;;6.00;;
76733;SDS011;65660;53.288;14.666;2023-07-20T19:12:33;5.20;;;4.82;;
76733;SDS011;65660;53.288;14.666;2023-07-20T19:17:33;8.57;;;7.97;;
76733;SDS011;65660;53.288;14.666;2023-07-20T19:22:34;6.50;;;6.10;;
76733;SDS011;65660;53.288;14.666;2023-07-20T19:27:38;7.32;;;6.18;;
76733;SDS011;65660;53.288;14.666;2023-07-20T19:32:39;6.15;;;5.75;;
76733;SDS011;65660;53.288;14.666;2023-07-20T19:37:39;6.45;;;5.95;;
76733;SDS011;65660;53.288;14.666;2023-07-20T19:42:40;7.45;;;6.00;;
76733;SDS011;65660;53.288;14.666;2023-07-20T19:47:40;8.43;;;7.78;;
76733;SDS011;65660;53.288;14.666;2023-07-20T19:52:41;7.60;;;7.10;;
76733;SDS011;65660;53.288;14.666;2023-07-20T19:57:41;8.90;;;8.10;;
76733;SDS011;65660;53.288;14.666;2023-07-20T20:02:42;6.75;;;4.60;;
76733;SDS011;65660;53.288;14.666;2023-07-20T20:07:42;4.43;;;4.03;;
76733;SDS011;65660;53.288;14.666;2023-07-20T20:12:43;6.25;;;5.85;;
76733;SDS011;65660;53.288;14.666;2023-07-20T20:17:43;5.22;;;4.82;;
76733;SDS011;65660;53.288;14.666;2023-07-20T20:22:44;4.70;;;4.40;;
76733;SDS011;65660;53.288;14.666;2023-07-20T20:27:44;4.72;;;4.32;;
76733;SDS011;65660;53.288;14.666;2023-07-20T20:32:45;5.82;;;5.53;;
76733;SDS011;65660;53.288;14.666;2023-07-20T20:37:45;7.72;;;7.22;;
76733;SDS011;65660;53.288;14.666;2023-07-20T20:42:46;6.45;;;6.00;;
76733;SDS011;65660;53.288;14.666;2023-07-20T20:47:46;6.70;;;6.30;;
76733;SDS011;65660;53.288;14.666;2023-07-20T20:52:47;8.55;;;7.65;;
76733;SDS011;65660;53.288;14.666;2023-07-20T20:57:47;6.57;;;6.28;;
76733;SDS011;65660;53.288;14.666;2023-07-20T21:02:48;8.55;;;8.05;;
76733;SDS011;65660;53.288;14.666;2023-07-20T21:07:52;8.25;;;7.65;;
76733;SDS011;65660;53.288;14.666;2023-07-20T21:12:52;6.00;;;5.50;;
76733;SDS011;65660;53.288;14.666;2023-07-20T21:17:53;5.60;;;5.18;;
76733;SDS011;65660;53.288;14.666;2023-07-20T21:22:53;6.93;;;6.43;;
76733;SDS011;65660;53.288;14.666;2023-07-20T21:27:54;7.07;;;6.55;;
76733;SDS011;65660;53.288;14.666;2023-07-20T21:32:54;7.30;;;6.70;;
76733;SDS011;65660;53.288;14.666;2023-07-20T21:37:55;7.10;;;6.50;;
76733;SDS011;65660;53.288;14.666;2023-07-20T21:42:56;6.78;;;6.05;;
76733;SDS011;65660;53.288;14.666;2023-07-20T21:47:56;6.10;;;5.60;;
76733;SDS011;65660;53.288;14.666;2023-07-20T21:52:57;6.03;;;5.53;;
76733;SDS011;65660;53.288;14.666;2023-07-20T21:57:57;7.50;;;6.90;;
76733;SDS011;65660;53.288;14.666;2023-07-20T22:02:58;5.82;;;5.40;;
76733;SDS011;65660;53.288;14.666;2023-07-20T22:07:59;4.97;;;4.47;;
76733;SDS011;65660;53.288;14.666;2023-07-20T22:12:59;8.23;;;7.72;;
76733;SDS011;65660;53.288;14.666;2023-07-20T22:17:59;6.97;;;6.47;;
76733;SDS011;65660;53.288;14.666;2023-07-20T22:23:00;9.60;;;8.98;;
76733;SDS011;65660;53.288;14.666;2023-07-20T22:28:01;6.68;;;6.28;;
76733;SDS011;65660;53.288;14.666;2023-07-20T22:33:01;7.13;;;6.38;;
76733;SDS011;65660;53.288;14.666;2023-07-20T22:38:02;6.85;;;6.43;;
76733;SDS011;65660;53.288;14.666;2023-07-20T22:43:02;7.47;;;6.75;;
76733;SDS011;65660;53.288;14.666;2023-07-20T22:48:03;7.57;;;6.90;;
76733;SDS011;65660;53.288;14.666;2023-07-20T22:53:03;3.20;;;3.00;;
76733;SDS011;65660;53.288;14.666;2023-07-20T22:58:04;5.88;;;4.63;;
76733;SDS011;65660;53.288;14.666;2023-07-20T23:03:04;6.75;;;6.20;;
76733;SDS011;65660;53.288;14.666;2023-07-20T23:08:05;5.80;;;5.20;;
76733;SDS011;65660;53.288;14.666;2023-07-20T23:13:06;6.15;;;4.60;;
76733;SDS011;65660;53.288;14.666;2023-07-20T23:18:06;6.60;;;6.20;;
76733;SDS011;65660;53.288;14.666;2023-07-20T23:23:07;4.78;;;3.78;;
76733;SDS011;65660;53.288;14.666;2023-07-20T23:28:07;6.68;;;6.18;;
76733;SDS011;65660;53.288;14.666;2023-07-20T23:33:08;4.97;;;4.60;;
76733;SDS011;65660;53.288;14.666;2023-07-20T23:38:08;4.93;;;4.53;;
76733;SDS011;65660;53.288;14.666;2023-07-20T23:43:09;5.72;;;4.80;;
76733;SDS011;65660;53.288;14.666;2023-07-20T23:48:09;5.95;;;5.45;;
76733;SDS011;65660;53.288;14.666;2023-07-20T23:53:10;7.50;;;6.95;;
76733;SDS011;65660;53.288;14.666;2023-07-20T23:58:10;6.63;;;6.13;;
